createdAt,value
2022-09-13T00:01:18.961Z,21.41
2022-09-13T00:03:47.681Z,21.27
2022-09-13T00:06:19.836Z,21.30
2022-09-13T00:08:49.175Z,21.46
2022-09-13T00:11:21.957Z,21.35
2022-09-13T00:13:50.529Z,21.37
2022-09-13T00:16:21.865Z,21.33
2022-09-13T00:18:50.557Z,21.00
2022-09-13T00:21:22.024Z,21.11
2022-09-13T00:23:52.866Z,21.28
2022-09-13T00:26:24.941Z,21.30
2022-09-13T00:28:55.057Z,21.27
2022-09-13T00:31:25.380Z,21.22
2022-09-13T00:33:54.697Z,21.32
2022-09-13T00:36:23.322Z,21.22
2022-09-13T00:38:51.744Z,21.28
2022-09-13T00:41:23.154Z,21.19
2022-09-13T00:43:55.025Z,21.14
2022-09-13T00:46:33.709Z,21.23
2022-09-13T00:49:10.530Z,21.29
2022-09-13T00:51:40.007Z,21.27
2022-09-13T00:54:08.625Z,21.30
2022-09-13T00:56:44.827Z,21.14
2022-09-13T00:59:20.591Z,21.12
2022-09-13T01:01:54.330Z,21.13
2022-09-13T01:04:27.289Z,21.26
2022-09-13T01:07:05.361Z,21.18
2022-09-13T01:09:36.937Z,21.31
2022-09-13T01:12:16.121Z,20.90
2022-09-13T01:14:46.763Z,21.23
2022-09-13T01:17:15.590Z,21.20
2022-09-13T01:19:44.006Z,21.25
2022-09-13T01:23:02.775Z,21.19
2022-09-13T01:26:25.823Z,21.35
2022-09-13T01:29:54.924Z,21.34
2022-09-13T01:32:33.722Z,21.30
2022-09-13T01:35:18.545Z,21.02
2022-09-13T01:37:54.698Z,21.05
2022-09-13T01:40:44.040Z,21.25
2022-09-13T01:43:36.117Z,21.37
2022-09-13T01:46:07.903Z,21.15
2022-09-13T01:48:53.940Z,21.06
2022-09-13T01:51:30.279Z,21.24
2022-09-13T01:54:14.385Z,21.12
2022-09-13T01:56:55.376Z,21.35
2022-09-13T01:59:34.544Z,21.44
2022-09-13T02:02:08.240Z,21.43
2022-09-13T02:04:42.834Z,21.33
2022-09-13T02:07:15.433Z,21.49
2022-09-13T02:09:48.272Z,21.39
2022-09-13T02:12:21.082Z,21.55
2022-09-13T02:14:55.909Z,21.52
2022-09-13T02:17:29.689Z,21.58
2022-09-13T02:20:02.650Z,21.59
2022-09-13T02:22:35.934Z,21.42
2022-09-13T02:25:11.184Z,21.40
2022-09-13T02:27:43.017Z,21.37
2022-09-13T02:30:14.734Z,21.40
2022-09-13T02:32:49.459Z,21.55
2022-09-13T02:35:25.900Z,21.55
2022-09-13T02:38:03.901Z,21.53
2022-09-13T02:40:41.221Z,21.44
2022-09-13T02:43:16.672Z,21.38
2022-09-13T02:45:52.491Z,21.47
2022-09-13T02:48:32.426Z,21.53
2022-09-13T02:51:12.193Z,21.49
2022-09-13T02:53:50.022Z,21.44
2022-09-13T02:56:30.415Z,21.35
2022-09-13T02:59:07.020Z,21.49
2022-09-13T03:01:36.779Z,21.52
2022-09-13T03:04:05.220Z,21.56
2022-09-13T03:06:35.135Z,21.51
2022-09-13T03:09:07.518Z,21.49
2022-09-13T03:11:57.457Z,21.55
2022-09-13T03:14:48.095Z,21.60
2022-09-13T03:17:42.496Z,21.55
2022-09-13T03:20:18.544Z,21.50
2022-09-13T03:23:32.376Z,21.52
2022-09-13T03:26:36.550Z,21.58
2022-09-13T03:29:25.232Z,21.50
2022-09-13T03:32:09.866Z,21.39
2022-09-13T03:34:50.365Z,21.46
2022-09-13T03:37:29.400Z,21.50
2022-09-13T03:40:04.890Z,21.46
2022-09-13T03:42:41.054Z,21.48
2022-09-13T03:45:12.913Z,21.53
2022-09-13T03:47:44.631Z,21.51
2022-09-13T03:50:20.252Z,21.45
2022-09-13T03:52:56.437Z,21.26
2022-09-13T03:55:26.488Z,21.37
2022-09-13T03:57:54.834Z,21.37
2022-09-13T04:00:23.956Z,21.34
2022-09-13T04:02:52.252Z,21.25
2022-09-13T04:05:20.633Z,21.08
2022-09-13T04:07:49.017Z,21.17
2022-09-13T04:10:17.367Z,21.13
2022-09-13T04:12:47.091Z,20.95
2022-09-13T04:15:16.214Z,21.11
2022-09-13T04:17:44.590Z,21.08
2022-09-13T04:20:12.946Z,20.86
2022-09-13T04:22:42.209Z,21.08
2022-09-13T04:25:11.129Z,21.06
2022-09-13T04:27:39.418Z,21.04
2022-09-13T04:30:11.913Z,21.07
2022-09-13T04:32:40.224Z,21.10
2022-09-13T04:35:09.406Z,21.00
2022-09-13T04:37:38.542Z,21.12
2022-09-13T04:40:09.161Z,21.11
2022-09-13T04:42:37.832Z,21.01
2022-09-13T04:45:09.316Z,20.90
2022-09-13T04:47:38.063Z,21.14
2022-09-13T04:50:07.506Z,21.15
2022-09-13T04:52:35.997Z,21.08
2022-09-13T04:55:04.498Z,21.12
2022-09-13T04:57:32.715Z,21.07
2022-09-13T05:00:00.953Z,21.01
2022-09-13T05:02:30.666Z,20.98
2022-09-13T05:04:59.152Z,20.85
2022-09-13T05:07:27.648Z,20.88
2022-09-13T05:09:55.951Z,20.87
2022-09-13T05:12:24.232Z,20.82
2022-09-13T05:14:52.581Z,20.80
2022-09-13T05:17:21.764Z,20.71
2022-09-13T05:19:51.688Z,20.84
2022-09-13T05:22:19.985Z,20.85
2022-09-13T05:24:48.297Z,20.86
2022-09-13T05:27:16.579Z,20.68
2022-09-13T05:29:44.888Z,20.78
2022-09-13T05:32:13.148Z,20.99
2022-09-13T05:34:41.446Z,21.02
2022-09-13T05:37:11.158Z,21.00
2022-09-13T05:40:00.652Z,20.91
2022-09-13T05:42:27.759Z,20.73
2022-09-13T05:44:57.537Z,21.17
2022-09-13T05:47:26.077Z,21.16
2022-09-13T05:50:11.799Z,21.19
2022-09-13T05:52:44.326Z,21.20
2022-09-13T05:55:12.638Z,21.31
2022-09-13T05:57:40.981Z,21.30
2022-09-13T06:00:11.640Z,21.42
2022-09-13T06:02:43.629Z,21.50
2022-09-13T06:05:12.660Z,21.55
2022-09-13T06:07:43.663Z,21.34
2022-09-13T06:10:13.348Z,21.59
2022-09-13T06:12:41.921Z,21.66
2022-09-13T06:15:11.524Z,21.53
2022-09-13T06:17:39.803Z,21.90
2022-09-13T06:20:10.642Z,21.91
2022-09-13T06:22:39.197Z,22.11
2022-09-13T06:25:10.806Z,21.97
2022-09-13T06:27:39.085Z,22.11
2022-09-13T06:30:12.048Z,22.21
2022-09-13T06:32:40.976Z,22.04
2022-09-13T06:35:10.360Z,22.10
2022-09-13T06:37:39.045Z,22.33
2022-09-13T06:40:09.940Z,22.34
2022-09-13T06:42:38.429Z,22.35
2022-09-13T06:45:08.350Z,22.36
2022-09-13T06:47:36.868Z,22.36
2022-09-13T06:50:05.763Z,22.40
2022-09-13T06:52:34.096Z,22.35
2022-09-13T06:55:02.433Z,22.26
2022-09-13T06:57:33.153Z,22.42
2022-09-13T07:00:01.584Z,22.39
2022-09-13T07:02:29.989Z,22.62
2022-09-13T07:04:58.240Z,22.71
2022-09-13T07:07:26.542Z,22.76
2022-09-13T07:09:55.106Z,22.71
2022-09-13T07:12:23.366Z,22.79
2022-09-13T07:14:53.693Z,22.77
2022-09-13T07:17:21.978Z,22.77
2022-09-13T07:19:50.281Z,22.89
2022-09-13T07:22:18.606Z,22.97
2022-09-13T07:24:47.023Z,23.36
2022-09-13T07:27:16.803Z,23.15
2022-09-13T07:29:45.149Z,23.32
2022-09-13T07:32:14.931Z,22.63
2022-09-13T07:34:43.136Z,22.87
2022-09-13T07:37:11.701Z,22.68
2022-09-13T07:39:40.123Z,22.63
2022-09-13T07:42:08.562Z,23.04
2022-09-13T07:44:36.859Z,23.21
2022-09-13T07:47:05.602Z,23.26
2022-09-13T07:49:35.295Z,23.38
2022-09-13T07:52:03.845Z,23.32
2022-09-13T07:54:32.080Z,23.16
2022-09-13T07:57:01.041Z,23.62
2022-09-13T07:59:30.271Z,23.52
2022-09-13T08:01:58.927Z,23.59
2022-09-13T08:04:27.667Z,23.55
2022-09-13T08:06:57.386Z,23.80
2022-09-13T08:09:25.853Z,23.99
2022-09-13T08:11:54.616Z,24.14
2022-09-13T08:14:24.448Z,24.40
2022-09-13T08:16:55.930Z,24.33
2022-09-13T08:19:24.335Z,24.71
2022-09-13T08:21:52.623Z,24.70
2022-09-13T08:24:23.753Z,24.71
2022-09-13T08:26:52.858Z,24.82
2022-09-13T08:29:21.333Z,24.68
2022-09-13T08:31:49.587Z,25.05
2022-09-13T08:34:18.459Z,24.86
2022-09-13T08:36:46.854Z,25.12
2022-09-13T08:39:15.388Z,25.27
2022-09-13T08:42:12.769Z,25.17
2022-09-13T08:44:47.098Z,25.10
2022-09-13T08:47:42.959Z,25.19
2022-09-13T08:50:20.403Z,24.95
2022-09-13T08:53:09.892Z,24.92
2022-09-13T08:55:50.549Z,24.78
2022-09-13T08:58:46.433Z,24.91
2022-09-13T09:01:31.646Z,25.34
2022-09-13T09:04:08.358Z,25.36
2022-09-13T09:06:37.681Z,25.60
2022-09-13T09:09:09.468Z,25.75
2022-09-13T09:11:43.817Z,25.87
2022-09-13T09:14:26.031Z,26.22
2022-09-13T09:16:59.623Z,26.19
2022-09-13T09:19:35.287Z,26.19
2022-09-13T09:22:07.768Z,26.19
2022-09-13T09:24:38.801Z,26.47
2022-09-13T09:27:16.542Z,26.45
2022-09-13T09:29:48.723Z,26.67
2022-09-13T09:32:37.218Z,27.08
2022-09-13T09:35:16.304Z,27.30
2022-09-13T09:37:55.518Z,27.30
2022-09-13T09:40:26.443Z,26.73
2022-09-13T09:42:56.886Z,26.65
2022-09-13T09:45:29.741Z,26.79
2022-09-13T09:48:06.694Z,26.59
2022-09-13T09:50:40.594Z,26.73
2022-09-13T09:53:14.769Z,27.16
2022-09-13T09:55:48.678Z,27.61
2022-09-13T09:58:18.985Z,27.59
2022-09-13T10:00:57.441Z,27.03
2022-09-13T10:03:29.159Z,26.85
2022-09-13T10:06:09.578Z,27.05
2022-09-13T10:08:41.241Z,27.27
2022-09-13T10:11:10.772Z,27.40
2022-09-13T10:13:39.375Z,27.06
2022-09-13T10:16:26.632Z,26.88
2022-09-13T10:18:55.659Z,27.23
2022-09-13T10:21:26.444Z,27.17
2022-09-13T10:24:19.257Z,27.47
2022-09-13T10:26:47.694Z,27.29
2022-09-13T10:29:18.777Z,27.43
2022-09-13T10:31:54.023Z,27.38
2022-09-13T10:34:25.818Z,27.45
2022-09-13T10:36:59.177Z,27.26
2022-09-13T10:39:31.055Z,27.17
2022-09-13T10:42:05.418Z,27.19
2022-09-13T10:44:41.214Z,27.31
2022-09-13T10:47:20.861Z,27.41
2022-09-13T10:49:52.872Z,27.25
2022-09-13T10:52:34.961Z,27.21
2022-09-13T10:55:39.068Z,27.01
2022-09-13T10:58:20.141Z,27.17
2022-09-13T11:01:28.486Z,27.05
2022-09-13T11:04:56.617Z,27.17
2022-09-13T11:07:47.305Z,27.33
2022-09-13T11:10:26.356Z,27.68
2022-09-13T11:13:03.725Z,27.78
2022-09-13T11:15:50.896Z,27.92
2022-09-13T11:18:56.133Z,28.28
2022-09-13T11:21:43.885Z,28.06
2022-09-13T11:24:29.270Z,28.25
2022-09-13T11:27:10.376Z,28.49
2022-09-13T11:30:12.427Z,28.74
2022-09-13T11:33:07.843Z,28.17
2022-09-13T11:35:56.368Z,28.07
2022-09-13T11:38:50.757Z,28.50
2022-09-13T11:41:31.675Z,27.96
2022-09-13T11:44:29.846Z,28.48
2022-09-13T11:47:09.430Z,28.39
2022-09-13T11:50:04.374Z,28.11
2022-09-13T11:52:48.189Z,28.40
2022-09-13T11:55:29.386Z,28.19
2022-09-13T11:58:02.110Z,28.53
2022-09-13T12:00:36.091Z,27.97
2022-09-13T12:03:13.196Z,28.22
2022-09-13T12:05:48.628Z,28.82
2022-09-13T12:08:23.821Z,29.40
2022-09-13T12:10:57.797Z,29.27
2022-09-13T12:13:30.067Z,29.89
2022-09-13T12:16:03.697Z,30.33
2022-09-13T12:18:38.952Z,29.99
2022-09-13T12:21:10.335Z,30.08
2022-09-13T12:23:44.711Z,29.98
2022-09-13T12:26:21.266Z,29.22
2022-09-13T12:28:55.377Z,28.81
2022-09-13T12:31:26.864Z,28.75
2022-09-13T12:33:57.049Z,29.01
2022-09-13T12:36:58.218Z,28.79
2022-09-13T12:40:12.280Z,29.06
2022-09-13T12:43:11.525Z,29.65
2022-09-13T12:46:09.748Z,29.96
2022-09-13T12:49:11.589Z,29.49
2022-09-13T12:52:04.779Z,29.51
2022-09-13T12:55:02.153Z,28.97
2022-09-13T12:57:42.338Z,28.49
2022-09-13T13:00:24.233Z,28.62
2022-09-13T13:03:02.579Z,28.58
2022-09-13T13:05:35.036Z,28.71
2022-09-13T13:08:07.130Z,29.05
2022-09-13T13:10:39.098Z,29.42
2022-09-13T13:13:26.367Z,29.32
2022-09-13T13:16:21.160Z,28.89
2022-09-13T13:18:52.091Z,28.88
2022-09-13T13:21:40.048Z,29.24
2022-09-13T13:24:48.225Z,28.85
2022-09-13T13:27:48.047Z,28.64
2022-09-13T13:30:53.617Z,28.27
2022-09-13T13:33:31.987Z,27.94
2022-09-13T13:36:23.738Z,28.15
2022-09-13T13:38:53.701Z,28.01
2022-09-13T13:41:55.526Z,28.10
2022-09-13T13:45:14.864Z,27.92
2022-09-13T13:48:35.949Z,27.73
2022-09-13T13:51:20.810Z,27.61
2022-09-13T13:53:56.277Z,27.46
2022-09-13T13:56:46.183Z,27.63
2022-09-13T13:59:23.888Z,27.19
2022-09-13T14:01:59.277Z,27.11
2022-09-13T14:05:14.695Z,27.58
2022-09-13T14:08:33.448Z,27.21
2022-09-13T14:11:15.807Z,27.44
2022-09-13T14:13:59.692Z,27.28
2022-09-13T14:16:48.673Z,26.99
2022-09-13T14:19:25.293Z,26.81
2022-09-13T14:22:21.032Z,26.83
2022-09-13T14:24:50.690Z,26.96
2022-09-13T14:27:22.732Z,26.94
2022-09-13T14:29:54.205Z,27.04
2022-09-13T14:32:28.087Z,27.34
2022-09-13T14:35:03.737Z,27.32
2022-09-13T14:37:36.170Z,27.53
2022-09-13T14:40:19.113Z,27.43
2022-09-13T14:42:50.511Z,27.30
2022-09-13T14:45:22.986Z,27.07
2022-09-13T14:47:58.094Z,27.01
2022-09-13T14:50:31.121Z,26.59
2022-09-13T14:53:04.293Z,26.39
2022-09-13T14:55:39.276Z,26.50
2022-09-13T14:58:16.094Z,26.67
2022-09-13T15:00:51.682Z,26.41
2022-09-13T15:03:21.114Z,26.07
2022-09-13T15:05:57.003Z,26.39
2022-09-13T15:08:46.640Z,26.37
2022-09-13T15:11:29.753Z,26.37
2022-09-13T15:14:28.178Z,26.45
2022-09-13T15:17:01.850Z,26.07
2022-09-13T15:19:40.407Z,25.95
2022-09-13T15:22:21.895Z,25.75
2022-09-13T15:24:54.807Z,25.82
2022-09-13T15:27:29.573Z,25.53
2022-09-13T15:30:00.449Z,25.36
2022-09-13T15:32:35.974Z,25.32
2022-09-13T15:35:04.441Z,25.58
2022-09-13T15:37:37.121Z,25.42
2022-09-13T15:40:25.031Z,25.20
2022-09-13T15:42:54.207Z,25.28
2022-09-13T15:45:23.864Z,25.03
2022-09-13T15:47:54.264Z,25.33
2022-09-13T15:50:31.142Z,25.34
2022-09-13T15:53:01.515Z,25.41
2022-09-13T15:55:32.788Z,25.03
2022-09-13T15:58:01.047Z,25.23
2022-09-13T16:00:29.465Z,25.37
2022-09-13T16:02:57.803Z,24.96
2022-09-13T16:05:26.197Z,24.90
2022-09-13T16:07:58.798Z,24.98
2022-09-13T16:10:27.212Z,25.02
2022-09-13T16:12:56.855Z,25.01
2022-09-13T16:15:25.233Z,25.02
2022-09-13T16:17:53.764Z,24.72
2022-09-13T16:20:22.389Z,24.78
2022-09-13T16:22:50.938Z,24.33
2022-09-13T16:25:19.675Z,24.28
2022-09-13T16:27:48.465Z,24.15
2022-09-13T16:30:22.226Z,24.34
2022-09-13T16:32:51.035Z,24.10
2022-09-13T16:35:19.507Z,24.00
2022-09-13T16:37:51.393Z,23.73
2022-09-13T16:40:20.482Z,23.80
2022-09-13T16:42:48.874Z,24.04
2022-09-13T16:45:18.985Z,23.77
2022-09-13T16:47:47.250Z,23.83
2022-09-13T16:50:16.033Z,23.90
2022-09-13T16:52:44.550Z,23.83
2022-09-13T16:55:13.273Z,24.02
2022-09-13T16:57:42.127Z,23.79
2022-09-13T17:00:13.183Z,24.03
2022-09-13T17:02:43.184Z,23.88
2022-09-13T17:05:11.632Z,23.69
2022-09-13T17:07:40.570Z,23.34
2022-09-13T17:10:11.863Z,23.33
2022-09-13T17:12:40.789Z,23.46
2022-09-13T17:15:10.126Z,23.51
2022-09-13T17:17:38.630Z,23.65
2022-09-13T17:20:13.280Z,23.34
2022-09-13T17:22:42.294Z,23.01
2022-09-13T17:25:12.002Z,23.13
2022-09-13T17:27:40.510Z,23.15
2022-09-13T17:30:12.407Z,22.94
2022-09-13T17:32:40.959Z,23.02
2022-09-13T17:35:12.040Z,23.10
2022-09-13T17:37:40.496Z,22.92
2022-09-13T17:40:10.058Z,22.85
2022-09-13T17:42:38.448Z,22.77
2022-09-13T17:45:07.732Z,22.37
2022-09-13T17:47:35.985Z,22.65
2022-09-13T17:50:04.809Z,22.59
2022-09-13T17:52:35.329Z,22.53
2022-09-13T17:55:03.919Z,22.43
2022-09-13T17:57:32.442Z,22.22
2022-09-13T18:00:00.848Z,22.31
2022-09-13T18:02:29.590Z,22.30
2022-09-13T18:04:58.909Z,22.21
2022-09-13T18:07:29.621Z,22.11
2022-09-13T18:12:27.474Z,21.85
2022-09-13T18:14:55.879Z,21.68
2022-09-13T18:17:24.186Z,21.54
2022-09-13T18:19:52.497Z,21.37
2022-09-13T18:22:20.922Z,21.35
2022-09-13T18:24:49.155Z,21.15
2022-09-13T18:27:18.892Z,21.12
2022-09-13T18:29:50.183Z,21.16
2022-09-13T18:32:18.503Z,21.13
2022-09-13T18:34:46.888Z,21.07
2022-09-13T18:37:15.344Z,20.94
2022-09-13T18:39:43.707Z,21.08
2022-09-13T18:42:12.148Z,21.07
2022-09-13T18:44:42.615Z,21.02
2022-09-13T18:47:13.051Z,21.00
2022-09-13T18:49:42.041Z,20.81
2022-09-13T18:52:12.352Z,20.79
2022-09-13T18:54:41.954Z,20.85
2022-09-13T18:57:11.729Z,20.74
2022-09-13T18:59:42.227Z,20.59
2022-09-13T19:02:13.007Z,20.72
2022-09-13T19:04:42.659Z,20.70
2022-09-13T19:07:12.490Z,20.69
2022-09-13T19:09:42.709Z,20.70
2022-09-13T19:12:12.573Z,20.53
2022-09-13T19:14:43.348Z,20.52
2022-09-13T19:17:12.749Z,20.50
2022-09-13T19:19:41.837Z,20.52
2022-09-13T19:22:11.279Z,20.40
2022-09-13T19:24:40.137Z,20.34
2022-09-13T19:27:09.287Z,20.36
2022-09-13T19:29:38.611Z,20.22
2022-09-13T19:32:09.073Z,20.02
2022-09-13T19:34:38.002Z,19.93
2022-09-13T19:37:06.499Z,19.72
2022-09-13T19:39:35.261Z,19.86
2022-09-13T19:42:03.849Z,19.77
2022-09-13T19:44:32.149Z,19.72
2022-09-13T19:49:50.591Z,19.63
2022-09-13T19:52:18.891Z,19.73
2022-09-13T19:54:47.198Z,19.71
2022-09-13T19:57:15.496Z,19.71
2022-09-13T19:59:43.973Z,19.34
2022-09-13T20:02:12.541Z,19.47
2022-09-13T20:04:41.291Z,19.53
2022-09-13T20:07:13.337Z,19.44
2022-09-13T20:09:42.392Z,19.38
2022-09-13T20:12:12.650Z,19.14
2022-09-13T20:14:41.029Z,18.97
2022-09-13T20:17:09.348Z,18.88
2022-09-13T20:19:43.841Z,19.01
2022-09-13T20:22:17.581Z,18.93
2022-09-13T20:24:45.962Z,18.87
2022-09-13T20:27:14.498Z,18.86
2022-09-13T20:29:42.870Z,18.95
2022-09-13T20:32:11.505Z,18.93
2022-09-13T20:34:39.752Z,18.99
2022-09-13T20:37:08.104Z,18.88
2022-09-13T20:39:37.945Z,18.86
2022-09-13T20:42:06.715Z,18.78
2022-09-13T20:44:34.950Z,18.78
2022-09-13T20:47:03.411Z,18.68
2022-09-13T20:49:31.653Z,18.58
2022-09-13T20:52:00.008Z,18.91
2022-09-13T20:54:28.390Z,18.73
2022-09-13T20:56:58.235Z,18.73
2022-09-13T20:59:26.817Z,18.83
2022-09-13T21:01:55.228Z,18.89
2022-09-13T21:04:24.272Z,18.95
2022-09-13T21:07:14.458Z,19.02
2022-09-13T21:09:43.487Z,19.00
2022-09-13T21:12:14.433Z,19.00
2022-09-13T21:14:42.852Z,19.01
2022-09-13T21:17:11.535Z,18.94
2022-09-13T21:19:40.092Z,19.04
2022-09-13T21:22:09.885Z,18.97
2022-09-13T21:24:38.509Z,18.91
2022-09-13T21:27:07.608Z,18.97
2022-09-13T21:29:37.331Z,18.79
2022-09-13T21:32:05.757Z,18.70
2022-09-13T21:34:33.984Z,18.96
2022-09-13T21:37:02.403Z,18.84
2022-09-13T21:39:31.269Z,18.99
2022-09-13T21:41:59.435Z,18.99
2022-09-13T21:44:28.247Z,18.95
2022-09-13T21:46:57.939Z,18.93
2022-09-13T21:49:26.254Z,18.97
2022-09-13T21:51:55.119Z,18.94
2022-09-13T21:54:24.811Z,19.05
2022-09-13T21:56:55.103Z,18.92
2022-09-13T21:59:24.502Z,18.97
2022-09-13T22:01:54.920Z,19.05
2022-09-13T22:04:27.526Z,18.90
2022-09-13T22:06:56.478Z,19.11
2022-09-13T22:09:27.632Z,18.96
2022-09-13T22:11:57.444Z,18.98
2022-09-13T22:14:26.756Z,19.06
2022-09-13T22:16:55.167Z,19.02
2022-09-13T22:19:28.040Z,19.00
2022-09-13T22:21:59.537Z,19.01
2022-09-13T22:24:32.101Z,19.00
2022-09-13T22:27:00.794Z,19.03
2022-09-13T22:29:29.548Z,19.01
2022-09-13T22:31:57.993Z,19.00
2022-09-13T22:34:30.857Z,19.00
2022-09-13T22:37:00.159Z,19.08
2022-09-13T22:39:28.492Z,19.08
2022-09-13T22:41:56.681Z,19.07
2022-09-13T22:44:24.907Z,19.09
2022-09-13T22:46:53.284Z,19.05
2022-09-13T22:49:21.640Z,19.01
2022-09-13T22:51:51.309Z,18.92
2022-09-13T22:54:20.598Z,19.00
2022-09-13T22:56:49.438Z,18.95
2022-09-13T22:59:20.551Z,18.87
2022-09-13T23:01:49.091Z,18.86
2022-09-13T23:04:17.809Z,18.87
2022-09-13T23:06:46.469Z,18.83
2022-09-13T23:09:18.923Z,18.79
2022-09-13T23:11:47.977Z,18.76
2022-09-13T23:14:19.883Z,18.64
2022-09-13T23:16:51.179Z,18.60
2022-09-13T23:19:23.053Z,18.53
2022-09-13T23:21:53.485Z,18.60
2022-09-13T23:24:24.286Z,18.38
2022-09-13T23:26:55.174Z,18.54
2022-09-13T23:29:24.056Z,18.60
2022-09-13T23:31:52.563Z,18.52
2022-09-13T23:34:20.902Z,18.65
2022-09-13T23:36:49.064Z,18.63
2022-09-13T23:39:20.225Z,18.47
2022-09-13T23:41:50.984Z,18.65
2022-09-13T23:44:19.896Z,18.51
2022-09-13T23:46:48.156Z,18.62
2022-09-13T23:49:17.005Z,18.31
2022-09-13T23:51:45.992Z,18.48
2022-09-13T23:54:15.033Z,18.27
2022-09-13T23:56:44.220Z,18.31
2022-09-13T23:59:14.338Z,18.54
